Seven Valleys, Pennsylvania
Current Conditions -  °F | °C
As of 5:53 PM on Wednesday 17 Dec 2014 (Local Time) from KTHV Reporting Station
Broken Clouds Broken Clouds  
Wind Chill: 33°   Ceiling: 4700
Heat Index: 40°   Visibility: 10mi
Dew Point: 24°   Wind: 12mph
Humidity: 53%   Direction: 280°W
Pressure: 29.99"   Gusts: NA
Location:  39.86°N, 76.77°W
Report Text: KTHV 172253Z AUTO 28010KT 10SM BKN047 04/M04 A2999 RMK AO2 SLP161 T00441044
Loading
Personal Weather Stations






























Interactive Weather Map New forecast layout! Learn more

10-Day Weather Forecast

Advertisements
Track Severe Weather on mobile